Rochelle, Illinois
Current Conditions -  °F | °C
As of 8:35 AM on Friday 31 Oct 2014 (Local Time) from KRPJ Reporting Station
Overcast Overcast  
Wind Chill: -6°   Ceiling: 4300
Heat Index:   Visibility: 10mi
Dew Point: -2°   Wind: 25mph
Humidity: 77%   Direction: 350°N
Pressure: 30.2"   Gusts: 31mph
Location:  41.93°N, 89.07°W
Report Text: KRPJ 311335Z AUTO 35022G27KT 10SM SCT027 SCT032 OVC043 01/M02 A3020 RMK AO2 T00131024
Loading
Personal Weather Stations






























Interactive Weather Map
Tropical Storm Tracking
New forecast layout! Learn more

10-Day Weather Forecast

Advertisements
Track Severe Weather on mobile